Time;durP1;ratioP1;P1;durP2;ratioP2;P2;SDS_P1;SDS_P2;PMS_P1;PMS_P2;Temp;Humidity;BMP_temperature;BMP_pressure;BME280_temperature;BME280_humidity;BME280_pressure;Samples;Min_cycle;Max_cycle;Signal;HPM_P1;HPM_P2
2022/09/04 00:00:00;;;;;;;3.40;1.45;;;17.30;76.80;;;;;;5051636;28;20044;-53
2022/09/04 00:02:47;;;;;;;4.80;1.60;;;17.20;76.60;;;;;;5048450;28;20052;-54
2022/09/04 00:05:23;;;;;;;2.30;1.40;;;17.20;76.60;;;;;;5051169;28;20053;-52
2022/09/04 00:08:13;;;;;;;2.03;1.20;;;17.20;76.80;;;;;;5037284;28;20033;-55
2022/09/04 00:10:41;;;;;;;3.25;1.42;;;17.20;76.80;;;;;;5060586;28;20040;-54
2022/09/04 00:13:48;;;;;;;4.32;1.02;;;17.10;77.00;;;;;;5053175;28;20029;-55
2022/09/04 00:16:21;;;;;;;3.72;1.40;;;17.10;77.00;;;;;;5001413;28;20037;-52
2022/09/04 00:19:26;;;;;;;3.25;1.30;;;17.10;77.30;;;;;;5041697;28;20055;-53
2022/09/04 00:21:59;;;;;;;;;;;17.00;77.50;;;;;;5029930;28;20350;-55
2022/09/04 00:24:41;;;;;;;2.92;1.58;;;16.90;77.60;;;;;;5034219;28;20518;-54
2022/09/04 00:27:18;;;;;;;2.33;1.40;;;16.90;77.60;;;;;;5059196;28;20127;-56
2022/09/04 00:29:50;;;;;;;3.78;1.27;;;16.90;77.60;;;;;;5037111;28;20032;-53
2022/09/04 00:32:40;;;;;;;4.53;1.42;;;16.90;77.80;;;;;;5052605;28;20185;-55
2022/09/04 00:35:30;;;;;;;4.13;1.60;;;16.90;77.70;;;;;;5052621;28;20093;-54
2022/09/04 00:38:02;;;;;;;3.92;1.63;;;16.80;77.90;;;;;;5033404;28;20319;-54
2022/09/04 00:40:32;;;;;;;4.15;1.48;;;16.80;78.00;;;;;;5049698;28;20045;-52
2022/09/04 00:43:17;;;;;;;3.25;1.48;;;16.70;77.80;;;;;;5036698;28;20068;-53
2022/09/04 00:45:46;;;;;;;2.25;1.40;;;16.70;78.10;;;;;;5035111;28;20102;-52
2022/09/04 00:48:35;;;;;;;3.03;1.33;;;16.70;78.20;;;;;;5052323;28;20045;-55
2022/09/04 00:51:28;;;;;;;3.25;1.23;;;16.70;78.00;;;;;;5054682;28;20124;-54
2022/09/04 00:54:12;;;;;;;2.08;1.30;;;16.70;78.40;;;;;;5054657;28;20036;-54
2022/09/04 00:56:53;;;;;;;5.70;1.80;;;16.60;78.30;;;;;;5057479;28;20393;-54
2022/09/04 00:59:44;;;;;;;2.78;1.80;;;16.60;78.30;;;;;;5030551;28;20565;-53
2022/09/04 01:02:49;;;;;;;4.60;1.70;;;16.60;78.70;;;;;;5001829;28;20053;-52
2022/09/04 01:05:51;;;;;;;4.28;1.67;;;16.60;78.60;;;;;;5039637;28;20543;-52
2022/09/04 01:08:39;;;;;;;2.75;1.65;;;16.50;78.60;;;;;;5045438;28;20040;-52
2022/09/04 01:11:10;;;;;;;2.83;1.48;;;16.70;79.30;;;;;;5039312;28;20491;-55
2022/09/04 01:13:45;;;;;;;3.78;1.50;;;16.40;79.00;;;;;;5045448;28;20052;-53
2022/09/04 01:16:35;;;;;;;2.85;1.77;;;16.40;79.00;;;;;;5051261;28;20056;-51
2022/09/04 01:19:23;;;;;;;4.18;1.33;;;16.40;79.30;;;;;;5036708;28;20095;-52
2022/09/04 01:22:17;;;;;;;4.00;1.98;;;16.30;79.30;;;;;;5035176;28;20044;-53
2022/09/04 01:24:59;;;;;;;2.35;1.60;;;16.30;80.40;;;;;;5052592;28;20044;-54
2022/09/04 01:28:03;;;;;;;3.58;2.05;;;16.30;79.50;;;;;;5051716;28;20500;-51
2022/09/04 01:30:36;;;;;;;3.88;1.52;;;16.30;79.60;;;;;;5056143;28;20036;-53
2022/09/04 01:33:26;;;;;;;3.03;2.00;;;16.30;79.70;;;;;;5055893;28;20075;-53
2022/09/04 01:36:31;;;;;;;5.57;2.03;;;16.30;79.80;;;;;;5042758;28;20536;-52
2022/09/04 01:39:00;;;;;;;4.28;1.73;;;16.30;80.00;;;;;;5058736;28;20093;-51
2022/09/04 01:41:34;;;;;;;5.65;1.77;;;16.20;80.00;;;;;;5053171;28;20052;-54
2022/09/04 01:44:03;;;;;;;5.15;2.13;;;16.20;80.10;;;;;;5051455;28;20045;-50
2022/09/04 01:46:52;;;;;;;3.42;1.60;;;16.30;80.30;;;;;;5064597;28;20420;-51
2022/09/04 01:49:41;;;;;;;2.45;1.60;;;16.30;80.40;;;;;;5056321;28;20492;-53
2022/09/04 01:52:07;;;;;;;5.68;1.58;;;16.20;80.60;;;;;;5042779;28;20048;-53
2022/09/04 01:54:52;;;;;;;4.03;1.70;;;16.10;80.80;;;;;;5039363;28;20106;-55
2022/09/04 01:57:48;;;;;;;2.65;1.55;;;16.10;80.90;;;;;;5061403;28;20405;-54
2022/09/04 02:00:17;;;;;;;2.05;1.45;;;16.10;81.00;;;;;;5037092;28;20150;-56
2022/09/04 02:02:48;;;;;;;3.85;1.73;;;16.00;81.40;;;;;;5049620;28;20633;-51
2022/09/04 02:05:29;;;;;;;5.10;1.50;;;16.00;81.50;;;;;;5056931;28;20032;-52
2022/09/04 02:08:05;;;;;;;3.58;1.77;;;16.00;81.70;;;;;;5057720;28;20041;-52
2022/09/04 02:10:50;;;;;;;6.88;1.90;;;16.00;81.70;;;;;;5059078;28;20128;-54
2022/09/04 02:13:35;;;;;;;3.80;1.55;;;15.90;81.70;;;;;;5051536;28;20532;-55
2022/09/04 02:16:25;;;;;;;4.75;1.80;;;15.90;82.20;;;;;;5053726;28;20755;-56
2022/09/04 02:19:15;;;;;;;4.85;2.25;;;15.90;81.90;;;;;;5035179;28;20086;-54
2022/09/04 02:21:54;;;;;;;4.45;2.00;;;15.80;81.90;;;;;;5050154;28;20044;-50
2022/09/04 02:24:48;;;;;;;4.18;2.17;;;15.70;82.00;;;;;;5054065;28;20036;-53
2022/09/04 02:27:29;;;;;;;6.60;1.60;;;15.60;82.20;;;;;;5052287;28;20036;-55
2022/09/04 02:30:10;;;;;;;5.82;1.90;;;15.60;82.40;;;;;;5053962;28;20291;-52
2022/09/04 02:33:01;;;;;;;3.10;1.77;;;15.50;82.40;;;;;;5051168;28;20119;-54
2022/09/04 02:35:43;;;;;;;3.45;1.90;;;15.50;82.60;;;;;;5057954;28;20510;-53
2022/09/04 02:38:34;;;;;;;4.50;1.98;;;15.50;82.40;;;;;;5056346;28;20435;-53
2022/09/04 02:41:28;;;;;;;4.80;2.10;;;15.50;82.30;;;;;;5055805;22;20100;-60
2022/09/04 02:44:12;;;;;;;6.75;2.15;;;15.50;82.40;;;;;;5036784;28;20051;-59
2022/09/04 02:47:03;;;;;;;5.53;2.33;;;15.40;82.60;;;;;;5050332;28;20037;-59
2022/09/04 02:49:47;;;;;;;5.22;1.95;;;15.40;82.70;;;;;;5025627;28;20498;-60
2022/09/04 02:52:32;;;;;;;4.18;1.90;;;15.40;82.90;;;;;;5042085;28;20118;-59
2022/09/04 02:55:17;;;;;;;4.80;1.73;;;15.40;83.10;;;;;;5038786;28;20048;-59
2022/09/04 02:58:30;;;;;;;5.15;1.85;;;15.30;83.10;;;;;;5038118;28;20071;-60
2022/09/04 03:01:13;;;;;;;3.35;1.85;;;15.60;83.50;;;;;;5019513;28;20488;-60
2022/09/04 03:03:47;;;;;;;3.78;2.00;;;15.30;83.60;;;;;;5028175;28;20120;-60
2022/09/04 03:06:21;;;;;;;6.82;1.98;;;15.30;83.30;;;;;;5034744;28;20124;-60
2022/09/04 03:09:00;;;;;;;4.45;2.17;;;15.30;83.20;;;;;;5024621;28;20043;-60
2022/09/04 03:11:40;;;;;;;5.07;2.30;;;15.30;83.50;;;;;;5028274;28;21294;-59
2022/09/04 03:14:27;;;;;;;6.68;2.15;;;15.30;83.20;;;;;;5020993;28;20471;-59
2022/09/04 03:17:00;;;;;;;4.70;2.42;;;15.30;83.40;;;;;;5048445;28;20132;-59
2022/09/04 03:19:33;;;;;;;4.60;2.20;;;15.30;83.70;;;;;;5024497;28;20052;-59
2022/09/04 03:22:35;;;;;;;4.22;2.10;;;15.20;83.50;;;;;;5036428;28;20109;-60
2022/09/04 03:25:22;;;;;;;4.18;2.22;;;15.10;83.70;;;;;;5035696;28;20087;-60
2022/09/04 03:27:48;;;;;;;4.28;1.80;;;15.00;84.50;;;;;;5040069;28;20171;-60
2022/09/04 03:30:15;;;;;;;5.10;2.58;;;15.00;84.50;;;;;;5023637;28;20045;-59
2022/09/04 03:33:01;;;;;;;3.95;2.50;;;14.90;84.70;;;;;;5039287;28;20048;-60
2022/09/04 03:35:41;;;;;;;3.70;2.22;;;14.80;84.60;;;;;;5034965;28;20044;-60
2022/09/04 03:38:34;;;;;;;3.42;2.10;;;14.80;84.90;;;;;;5042407;28;20072;-58
2022/09/04 03:41:27;;;;;;;6.03;2.20;;;14.80;85.30;;;;;;5033882;28;20496;-60
2022/09/04 03:44:09;;;;;;;4.32;2.05;;;14.80;85.40;;;;;;5031332;28;20597;-60
2022/09/04 03:47:10;;;;;;;3.20;2.20;;;14.80;85.30;;;;;;5041276;28;20289;-60
2022/09/04 03:49:56;;;;;;;2.97;1.98;;;14.80;85.40;;;;;;4982803;28;20129;-60
2022/09/04 03:52:31;;;;;;;4.70;2.20;;;14.80;85.60;;;;;;5041718;28;20308;-59
2022/09/04 03:55:37;;;;;;;4.07;1.73;;;14.80;85.70;;;;;;5031338;28;20538;-59
2022/09/04 03:58:22;;;;;;;3.70;2.20;;;14.80;86.00;;;;;;5004094;28;20048;-60
2022/09/04 04:00:58;;;;;;;6.00;1.88;;;14.80;86.40;;;;;;5042232;28;20045;-59
2022/09/04 04:03:48;;;;;;;5.10;2.10;;;14.80;86.30;;;;;;5036670;28;20090;-59
2022/09/04 04:06:22;;;;;;;6.47;2.33;;;14.80;86.50;;;;;;5034552;28;20053;-60
2022/09/04 04:08:51;;;;;;;;;;;14.90;86.80;;;;;;5033024;28;20790;-60
2022/09/04 04:11:35;;;;;;;3.05;1.80;;;14.90;88.20;;;;;;5029913;28;19956;-60
2022/09/04 04:14:36;;;;;;;3.72;2.15;;;14.80;87.00;;;;;;5032349;28;20508;-60
2022/09/04 04:17:27;;;;;;;4.95;2.40;;;14.90;87.40;;;;;;5037778;28;20041;-60
2022/09/04 04:19:56;;;;;;;6.13;2.20;;;14.90;87.30;;;;;;5034246;28;20038;-60
2022/09/04 04:22:37;;;;;;;4.03;2.30;;;14.90;87.50;;;;;;5015879;28;20033;-61
2022/09/04 04:25:02;;;;;;;4.95;2.50;;;15.00;87.50;;;;;;5036437;28;20048;-61
2022/09/04 04:27:52;;;;;;;3.80;2.42;;;15.00;87.60;;;;;;5019960;28;20051;-60
2022/09/04 04:30:19;;;;;;;3.55;2.45;;;15.00;87.60;;;;;;5033603;28;20155;-61
2022/09/04 04:33:07;;;;;;;4.90;2.53;;;15.00;87.70;;;;;;5004019;28;20462;-60
2022/09/04 04:36:11;;;;;;;4.07;2.42;;;14.90;87.90;;;;;;5026968;28;20132;-59
2022/09/04 04:39:08;;;;;;;4.30;2.17;;;14.90;87.90;;;;;;5036093;28;20075;-59
2022/09/04 04:42:04;;;;;;;6.10;2.72;;;14.90;88.10;;;;;;5029521;28;20037;-60
2022/09/04 04:48:11;;;;;;;5.97;2.63;;;14.90;88.10;;;;;;5039729;28;20212;-60
2022/09/04 04:51:00;;;;;;;4.97;2.30;;;14.80;88.30;;;;;;5047990;28;20121;-61
2022/09/04 04:53:28;;;;;;;4.55;2.72;;;14.80;88.30;;;;;;4974792;28;20049;-60
2022/09/04 04:56:21;;;;;;;7.13;2.78;;;14.70;88.50;;;;;;5045773;28;20445;-60
2022/09/04 04:59:04;;;;;;;7.93;2.63;;;14.70;88.60;;;;;;5029447;28;20056;-59
2022/09/04 05:01:57;;;;;;;6.13;2.60;;;14.70;89.10;;;;;;5049266;28;20146;-60
2022/09/04 05:05:04;;;;;;;8.00;2.75;;;14.60;89.00;;;;;;5044546;28;20492;-60
2022/09/04 05:07:51;;;;;;;3.42;2.55;;;14.70;89.30;;;;;;5039475;28;20479;-59
2022/09/04 05:10:17;;;;;;;5.65;2.90;;;14.60;89.50;;;;;;5041195;28;20480;-59
2022/09/04 05:13:29;;;;;;;5.57;2.83;;;14.60;89.40;;;;;;5015630;28;20315;-60
2022/09/04 05:16:17;;;;;;;4.88;2.95;;;14.60;89.80;;;;;;5034605;28;20035;-60
2022/09/04 05:18:55;;;;;;;8.52;3.13;;;14.70;89.60;;;;;;5038584;28;20523;-59
2022/09/04 05:21:38;;;;;;;6.30;2.60;;;14.70;89.70;;;;;;5023346;28;20099;-61
2022/09/04 05:24:16;;;;;;;6.95;2.40;;;14.70;89.70;;;;;;5037529;28;20127;-59
2022/09/04 05:26:54;;;;;;;4.28;2.65;;;14.70;89.80;;;;;;5047960;28;20041;-59
2022/09/04 05:29:38;;;;;;;5.68;3.00;;;14.80;90.00;;;;;;5027187;28;20045;-60
2022/09/04 05:32:24;;;;;;;4.00;2.47;;;14.80;89.80;;;;;;5026872;28;20054;-60
2022/09/04 05:34:50;;;;;;;5.07;2.70;;;14.80;89.70;;;;;;5023034;28;20102;-60
2022/09/04 05:37:33;;;;;;;5.95;2.72;;;14.80;89.90;;;;;;5039690;28;20041;-60
2022/09/04 05:40:15;;;;;;;5.23;3.17;;;14.90;90.10;;;;;;5021266;28;20052;-60
2022/09/04 05:42:51;;;;;;;7.75;3.10;;;14.90;90.10;;;;;;5038332;28;20124;-60
2022/09/04 05:45:38;;;;;;;5.22;2.67;;;14.90;90.00;;;;;;5038963;28;20484;-60
2022/09/04 05:48:34;;;;;;;4.32;2.55;;;15.00;90.10;;;;;;5021673;28;20038;-59
2022/09/04 05:51:23;;;;;;;5.78;3.28;;;15.10;89.90;;;;;;5038227;28;20045;-60
2022/09/04 05:54:12;;;;;;;4.95;2.60;;;15.10;90.00;;;;;;5008154;28;20081;-58
2022/09/04 05:56:55;;;;;;;4.88;2.38;;;15.20;90.00;;;;;;5038222;28;20464;-60
2022/09/04 06:00:06;;;;;;;4.93;2.75;;;15.20;90.00;;;;;;5000328;28;20123;-59
2022/09/04 06:02:49;;;;;;;4.22;2.83;;;15.30;90.00;;;;;;5004696;28;20130;-59
2022/09/04 06:05:28;;;;;;;4.53;2.50;;;15.30;90.10;;;;;;5026487;28;20045;-61
2022/09/04 06:08:12;;;;;;;6.22;2.53;;;15.30;90.00;;;;;;5018922;28;20295;-61
2022/09/04 06:10:57;;;;;;;5.97;2.80;;;15.40;90.00;;;;;;5022614;28;20083;-61
2022/09/04 06:13:22;;;;;;;7.03;2.40;;;15.40;90.10;;;;;;5006567;28;20521;-61
2022/09/04 06:16:06;;;;;;;4.50;2.60;;;15.40;90.10;;;;;;4994075;28;20041;-61
2022/09/04 06:18:47;;;;;;;;;;;15.40;90.20;;;;;;5017529;28;20049;-61
2022/09/04 06:21:25;;;;;;;3.63;2.78;;;15.40;90.50;;;;;;5033175;28;19916;-61
2022/09/04 06:24:29;;;;;;;6.35;3.15;;;15.50;90.30;;;;;;5042501;28;20037;-61
2022/09/04 06:27:19;;;;;;;6.00;2.83;;;15.50;90.40;;;;;;4929739;28;20505;-61
2022/09/04 06:30:05;;;;;;;4.72;2.42;;;15.60;90.40;;;;;;5030782;28;20136;-61
2022/09/04 06:32:52;;;;;;;4.25;2.60;;;15.70;90.30;;;;;;5039458;28;20041;-61
2022/09/04 06:35:31;;;;;;;6.18;3.00;;;15.80;90.30;;;;;;5021648;28;20117;-61
2022/09/04 06:38:34;;;;;;;4.47;3.20;;;15.90;90.40;;;;;;5039517;28;20033;-61
2022/09/04 06:41:02;;;;;;;5.93;2.65;;;16.00;90.40;;;;;;5031059;28;20136;-61
2022/09/04 06:43:40;;;;;;;5.68;3.00;;;16.10;90.30;;;;;;5028701;28;20045;-61
2022/09/04 06:46:26;;;;;;;4.75;2.58;;;16.20;90.30;;;;;;5023112;28;20124;-60
2022/09/04 06:48:51;;;;;;;4.43;2.40;;;16.30;90.10;;;;;;5034813;28;20049;-61
2022/09/04 06:51:25;;;;;;;4.07;2.65;;;16.40;90.00;;;;;;5043896;28;20048;-61
2022/09/04 06:54:12;;;;;;;6.80;2.75;;;16.50;90.00;;;;;;5021305;28;20075;-61
2022/09/04 06:56:56;;;;;;;4.57;2.80;;;16.60;90.00;;;;;;5041327;28;20071;-61
2022/09/04 06:59:44;;;;;;;4.72;2.72;;;16.80;89.80;;;;;;5010498;28;20052;-61
2022/09/04 07:02:16;;;;;;;4.22;2.67;;;17.00;89.80;;;;;;5009766;28;20049;-61
2022/09/04 07:05:03;;;;;;;5.25;2.60;;;17.10;89.40;;;;;;5045567;28;20036;-62
2022/09/04 07:07:36;;;;;;;4.40;2.40;;;17.20;89.80;;;;;;5042611;28;20748;-61
2022/09/04 07:10:11;;;;;;;4.30;2.50;;;17.40;88.80;;;;;;5027223;28;20060;-62
2022/09/04 07:13:03;;;;;;;5.35;2.80;;;17.50;88.40;;;;;;5035586;28;20579;-61
2022/09/04 07:15:37;;;;;;;4.93;2.75;;;17.60;88.00;;;;;;5046155;28;20125;-61
2022/09/04 07:18:14;;;;;;;5.00;2.70;;;17.70;88.50;;;;;;5033268;28;20049;-61
2022/09/04 07:21:10;;;;;;;4.03;2.20;;;17.70;87.80;;;;;;5043610;28;20068;-61
2022/09/04 07:24:05;;;;;;;4.38;2.60;;;17.80;87.70;;;;;;5054655;28;20211;-61
2022/09/04 07:26:52;;;;;;;6.22;2.85;;;17.90;87.40;;;;;;5037898;28;20048;-61
2022/09/04 07:29:38;;;;;;;4.30;2.60;;;18.00;87.30;;;;;;5039691;28;20106;-61
2022/09/04 07:32:29;;;;;;;7.65;2.90;;;18.10;87.20;;;;;;5032183;28;20086;-61
2022/09/04 07:35:29;;;;;;;5.25;2.67;;;18.10;87.30;;;;;;5016666;28;20544;-61
2022/09/04 07:38:13;;;;;;;5.25;3.20;;;18.20;87.10;;;;;;5022762;28;20044;-61
2022/09/04 07:41:46;;;;;;;6.20;2.63;;;18.30;87.80;;;;;;5044738;28;20033;-61
2022/09/04 07:44:37;;;;;;;4.95;2.38;;;18.40;87.70;;;;;;4949327;28;20159;-61
2022/09/04 07:47:20;;;;;;;6.13;2.80;;;18.50;87.60;;;;;;5034237;28;20084;-61
2022/09/04 07:50:04;;;;;;;4.35;2.10;;;18.60;87.30;;;;;;5039284;28;20045;-61
2022/09/04 07:53:02;;;;;;;;;;;18.70;87.20;;;;;;5053658;28;20049;-61
2022/09/04 07:55:42;;;;;;;5.03;2.50;;;18.80;86.80;;;;;;5011181;28;19917;-61
2022/09/04 07:59:03;;;;;;;2.97;2.20;;;19.00;86.40;;;;;;5034995;28;20103;-59
2022/09/04 08:02:01;;;;;;;3.75;2.33;;;19.10;87.40;;;;;;4996796;28;20056;-61
2022/09/04 08:05:02;;;;;;;5.55;2.30;;;19.20;86.50;;;;;;4978226;28;21492;-62
2022/09/04 08:07:28;;;;;;;5.22;2.58;;;19.50;86.80;;;;;;5031099;28;20480;-62
2022/09/04 08:09:57;;;;;;;4.20;2.13;;;19.60;86.30;;;;;;5022909;28;20036;-62
2022/09/04 08:12:55;;;;;;;4.32;2.10;;;19.80;86.30;;;;;;5018187;28;20041;-62
2022/09/04 08:15:45;;;;;;;6.32;2.80;;;19.80;85.90;;;;;;5014667;28;20475;-62
2022/09/04 08:18:33;;;;;;;4.25;2.35;;;19.90;85.40;;;;;;5004579;28;20197;-62
2022/09/04 08:21:15;;;;;;;4.65;2.53;;;20.00;84.80;;;;;;5029248;28;20057;-62
2022/09/04 08:23:48;;;;;;;4.70;2.38;;;20.10;85.20;;;;;;5040210;28;20183;-61
2022/09/04 08:26:33;;;;;;;5.53;2.45;;;20.20;85.20;;;;;;5026420;28;20033;-62
2022/09/04 08:29:01;;;;;;;4.15;2.20;;;20.40;85.30;;;;;;5032723;28;20132;-62
2022/09/04 08:31:31;;;;;;;4.57;2.85;;;20.40;84.20;;;;;;5036003;28;20102;-62
2022/09/04 08:34:00;;;;;;;2.50;1.63;;;20.40;84.50;;;;;;5027753;28;20518;-62
2022/09/04 08:36:35;;;;;;;4.05;2.38;;;20.50;84.60;;;;;;4999270;28;20044;-62
2022/09/04 08:39:09;;;;;;;4.95;2.78;;;20.70;84.50;;;;;;5035024;28;20041;-61
2022/09/04 08:41:59;;;;;;;6.60;2.60;;;20.80;83.80;;;;;;5038978;22;20047;-60
2022/09/04 08:44:59;;;;;;;5.18;2.47;;;20.80;83.50;;;;;;5010685;28;20045;-64
2022/09/04 08:47:34;;;;;;;3.25;2.10;;;21.00;84.10;;;;;;5009039;28;20156;-63
2022/09/04 08:50:06;;;;;;;3.78;2.33;;;21.10;83.80;;;;;;4972395;28;20049;-64
2022/09/04 08:53:09;;;;;;;4.07;3.10;;;21.20;84.00;;;;;;5021224;28;20385;-64
2022/09/04 08:55:57;;;;;;;6.72;2.00;;;21.30;83.80;;;;;;5015990;28;20041;-61
2022/09/04 08:58:52;;;;;;;3.55;2.08;;;21.40;84.30;;;;;;5021432;28;20202;-62
2022/09/04 09:01:47;;;;;;;6.30;2.78;;;21.60;83.90;;;;;;5001752;28;21317;-62
2022/09/04 09:04:31;;;;;;;5.63;2.33;;;21.70;83.70;;;;;;5016036;28;20488;-63
2022/09/04 09:07:22;;;;;;;4.35;2.38;;;21.70;81.80;;;;;;5020697;28;20095;-63
2022/09/04 09:10:25;;;;;;;2.58;1.90;;;21.70;82.80;;;;;;5018736;28;20037;-64
2022/09/04 09:13:12;;;;;;;5.00;1.92;;;21.80;82.50;;;;;;5018883;28;20041;-63
2022/09/04 09:16:05;;;;;;;4.70;2.13;;;22.00;83.50;;;;;;5016912;28;20493;-64
2022/09/04 09:18:38;;;;;;;5.85;2.08;;;22.20;83.20;;;;;;5022997;28;20111;-64
2022/09/04 09:21:04;;;;;;;;;;;22.30;82.30;;;;;;5004814;28;20521;-62
2022/09/04 09:24:07;;;;;;;4.30;2.20;;;22.40;82.10;;;;;;5008295;28;19987;-62
2022/09/04 09:26:43;;;;;;;6.63;2.65;;;22.50;81.10;;;;;;5024563;28;20106;-63
2022/09/04 09:29:28;;;;;;;3.88;2.10;;;22.40;81.40;;;;;;5027801;28;20072;-61
2022/09/04 09:32:21;;;;;;;4.78;2.15;;;22.30;81.50;;;;;;5006453;28;20117;-61
2022/09/04 09:35:01;;;;;;;3.45;2.20;;;22.40;81.90;;;;;;5030924;28;20116;-62
2022/09/04 09:37:27;;;;;;;10.48;2.85;;;22.60;81.60;;;;;;5032330;28;20049;-62
2022/09/04 09:39:56;;;;;;;4.22;2.15;;;22.70;81.10;;;;;;5038281;28;20395;-62
2022/09/04 09:43:00;;;;;;;5.38;2.25;;;22.80;81.20;;;;;;5034639;28;20657;-63
2022/09/04 09:45:55;;;;;;;4.50;1.92;;;22.80;80.90;;;;;;5040514;28;20131;-63
2022/09/04 09:48:58;;;;;;;6.63;2.40;;;22.90;79.40;;;;;;5035913;28;20037;-63
2022/09/04 09:51:40;;;;;;;2.53;1.88;;;23.10;79.90;;;;;;5026906;28;20042;-63
2022/09/04 09:54:28;;;;;;;4.25;2.13;;;23.20;80.20;;;;;;5032477;28;20042;-63
2022/09/04 09:57:12;;;;;;;2.92;2.40;;;23.30;79.40;;;;;;5026678;28;20037;-63
2022/09/04 10:00:05;;;;;;;3.38;2.10;;;23.50;79.00;;;;;;5027958;28;20029;-63
2022/09/04 10:03:03;;;;;;;5.18;2.33;;;23.30;78.90;;;;;;5032536;28;20048;-63
2022/09/04 10:05:56;;;;;;;5.35;2.20;;;23.40;79.40;;;;;;5017441;28;20042;-63
2022/09/04 10:08:51;;;;;;;4.75;1.85;;;23.50;79.40;;;;;;5033952;28;20427;-63
2022/09/04 10:11:17;;;;;;;;;;;23.60;79.20;;;;;;5018718;28;20493;-63
2022/09/04 10:14:14;;;;;;;4.55;2.15;;;23.60;77.90;;;;;;5048876;28;19999;-63
2022/09/04 10:16:52;;;;;;;2.35;1.92;;;23.60;78.90;;;;;;5039287;28;20103;-64
2022/09/04 10:19:18;;;;;;;5.65;2.05;;;23.70;78.90;;;;;;5013511;28;20488;-62
2022/09/04 10:22:19;;;;;;;3.78;2.45;;;23.80;78.60;;;;;;5031540;28;20116;-62
2022/09/04 10:25:23;;;;;;;6.70;2.17;;;23.90;78.20;;;;;;5029514;28;20075;-61
2022/09/04 10:28:19;;;;;;;4.07;1.95;;;24.00;78.10;;;;;;4946530;28;20162;-60
2022/09/04 10:31:12;;;;;;;5.22;1.92;;;24.10;78.20;;;;;;4955372;28;20453;-62
2022/09/04 10:34:22;;;;;;;2.53;1.92;;;24.30;77.00;;;;;;5006893;28;20448;-62
2022/09/04 10:36:57;;;;;;;3.72;1.70;;;24.50;77.10;;;;;;4995101;28;20053;-61
2022/09/04 10:42:56;;;;;;;7.28;1.73;;;24.80;76.20;;;;;;5009073;28;20448;-61
2022/09/04 10:45:36;;;;;;;5.00;2.17;;;24.80;75.90;;;;;;4971654;28;20445;-61
2022/09/04 10:48:21;;;;;;;7.07;1.90;;;25.00;75.80;;;;;;5008410;28;20361;-61
2022/09/04 10:51:08;;;;;;;5.70;2.03;;;25.10;73.80;;;;;;4973639;28;20053;-61
2022/09/04 10:53:42;;;;;;;13.68;2.45;;;25.10;74.30;;;;;;5011926;28;20100;-61
2022/09/04 10:56:38;;;;;;;3.17;1.83;;;25.10;74.40;;;;;;5012040;28;20049;-61
2022/09/04 10:59:10;;;;;;;4.65;1.80;;;25.20;74.50;;;;;;5010225;28;20046;-62
2022/09/04 11:02:01;;;;;;;3.95;2.20;;;25.40;74.00;;;;;;5000402;28;20049;-62
2022/09/04 11:04:36;;;;;;;2.88;1.73;;;25.50;74.70;;;;;;4984947;28;20385;-63
2022/09/04 11:07:25;;;;;;;3.53;1.83;;;25.50;74.70;;;;;;5011847;28;20477;-63
2022/09/04 11:09:57;;;;;;;2.33;1.70;;;25.70;74.30;;;;;;5011528;28;20038;-62
2022/09/04 11:12:27;;;;;;;2.92;1.80;;;25.90;74.10;;;;;;5019137;28;20053;-63
2022/09/04 11:15:11;;;;;;;2.72;1.58;;;25.90;74.20;;;;;;5013708;28;20065;-62
2022/09/04 11:17:36;;;;;;;;;;;25.90;74.30;;;;;;5011370;28;20042;-63
2022/09/04 11:20:54;;;;;;;1.95;1.58;;;26.00;73.40;;;;;;5011105;28;19928;-63
2022/09/04 11:23:38;;;;;;;3.95;1.63;;;26.10;73.60;;;;;;5019497;28;20045;-60
2022/09/04 11:26:26;;;;;;;2.90;1.88;;;26.00;74.00;;;;;;5010466;28;20069;-61
2022/09/04 11:29:11;;;;;;;4.05;1.60;;;26.10;74.70;;;;;;5022234;28;20037;-63
2022/09/04 11:31:40;;;;;;;2.60;1.88;;;26.30;73.90;;;;;;5011897;28;20045;-63
2022/09/04 11:34:18;;;;;;;2.35;1.65;;;26.50;73.10;;;;;;5005611;28;20050;-62
2022/09/04 11:37:22;;;;;;;6.55;1.98;;;26.50;73.50;;;;;;5007250;28;20038;-61
2022/09/04 11:40:07;;;;;;;3.22;1.40;;;26.40;72.60;;;;;;4986736;28;20057;-62
2022/09/04 11:43:18;;;;;;;5.07;1.90;;;26.50;72.60;;;;;;5018076;28;20160;-62
2022/09/04 11:46:05;;;;;;;3.65;2.13;;;26.50;71.60;;;;;;5004535;28;20552;-62
2022/09/04 11:48:36;;;;;;;5.22;1.90;;;26.60;72.70;;;;;;5009574;28;20137;-61
2022/09/04 11:51:38;;;;;;;3.38;1.48;;;26.60;73.50;;;;;;5010734;28;20409;-62
2022/09/04 11:54:07;;;;;;;2.22;1.60;;;26.50;71.60;;;;;;4992656;28;20048;-63
2022/09/04 11:56:33;;;;;;;2.13;1.60;;;26.40;72.40;;;;;;5007473;28;20038;-63
2022/09/04 11:59:33;;;;;;;2.70;1.70;;;26.30;73.10;;;;;;5016412;28;20043;-63
2022/09/04 12:02:21;;;;;;;2.83;1.80;;;26.20;73.00;;;;;;4997212;28;20448;-62
2022/09/04 12:05:38;;;;;;;6.57;2.00;;;26.20;73.20;;;;;;5010147;28;20042;-61
2022/09/04 12:08:15;;;;;;;2.53;1.67;;;26.20;72.90;;;;;;4998514;28;20046;-63
2022/09/04 12:10:54;;;;;;;3.17;1.52;;;26.10;72.70;;;;;;4991250;28;20117;-61
2022/09/04 12:13:25;;;;;;;2.33;1.67;;;26.10;73.60;;;;;;4995279;28;20519;-63
2022/09/04 12:16:17;;;;;;;4.28;1.60;;;26.30;73.60;;;;;;5022522;28;20088;-61
2022/09/04 12:19:07;;;;;;;2.88;1.75;;;26.50;74.30;;;;;;5002311;28;20456;-63
2022/09/04 12:21:39;;;;;;;4.25;1.75;;;26.70;73.30;;;;;;5010148;28;20046;-61
2022/09/04 12:24:18;;;;;;;3.53;1.58;;;26.80;72.70;;;;;;4993015;28;20165;-62
2022/09/04 12:27:10;;;;;;;2.97;1.73;;;26.90;73.50;;;;;;5010850;28;20038;-63
2022/09/04 12:29:39;;;;;;;2.33;1.50;;;26.90;72.60;;;;;;4995475;28;20557;-62
2022/09/04 12:32:05;;;;;;;4.60;2.00;;;26.90;72.10;;;;;;4971498;28;20042;-63
2022/09/04 12:34:31;;;;;;;3.15;1.80;;;26.70;71.90;;;;;;4992416;28;20056;-63
2022/09/04 12:37:10;;;;;;;4.00;1.90;;;26.70;72.20;;;;;;5020656;28;20377;-62
2022/09/04 12:40:11;;;;;;;3.65;1.80;;;26.70;71.20;;;;;;4992906;28;20042;-63
2022/09/04 12:42:56;;;;;;;4.40;2.08;;;26.70;71.30;;;;;;4987905;28;20050;-63
2022/09/04 12:45:40;;;;;;;6.45;1.60;;;26.70;72.40;;;;;;5009295;28;20084;-63
2022/09/04 12:48:45;;;;;;;1.63;1.42;;;26.80;71.40;;;;;;4994087;28;20046;-63
2022/09/04 12:51:25;;;;;;;3.08;1.70;;;26.90;71.70;;;;;;5016546;28;20570;-63
2022/09/04 12:54:07;;;;;;;2.85;1.65;;;27.00;72.10;;;;;;5003055;28;20042;-63
2022/09/04 12:57:06;;;;;;;2.60;1.60;;;27.30;72.70;;;;;;4993275;28;20049;-62
2022/09/04 12:59:54;;;;;;;2.10;1.70;;;27.40;70.90;;;;;;5013737;28;20041;-63
2022/09/04 13:02:26;;;;;;;3.08;2.00;;;27.50;71.50;;;;;;5013317;28;20527;-62
2022/09/04 13:05:05;;;;;;;3.97;1.90;;;27.60;71.00;;;;;;4980188;28;20046;-62
2022/09/04 13:07:51;;;;;;;2.90;1.70;;;27.70;71.40;;;;;;5017167;28;20038;-63
2022/09/04 13:10:42;;;;;;;5.72;1.75;;;27.70;70.60;;;;;;5004627;28;20038;-63
2022/09/04 13:13:41;;;;;;;2.72;1.55;;;27.60;70.00;;;;;;4994349;28;20046;-62
2022/09/04 13:16:21;;;;;;;3.45;1.70;;;27.50;71.10;;;;;;5005608;28;20108;-62
2022/09/04 13:18:57;;;;;;;4.68;1.50;;;27.60;71.60;;;;;;5012176;28;20049;-62
2022/09/04 13:22:01;;;;;;;2.70;1.73;;;27.80;71.10;;;;;;5014715;28;20497;-63
2022/09/04 13:24:34;;;;;;;3.88;1.67;;;27.80;71.10;;;;;;5009821;28;20069;-62
2022/09/04 13:27:25;;;;;;;3.42;1.85;;;27.70;70.90;;;;;;5013195;28;20038;-62
2022/09/04 13:30:20;;;;;;;3.80;1.95;;;27.80;70.50;;;;;;4970520;28;20061;-63
2022/09/04 13:33:38;;;;;;;3.10;1.80;;;27.80;70.00;;;;;;5015713;28;20041;-63
2022/09/04 13:36:09;;;;;;;2.85;1.70;;;27.50;69.40;;;;;;5010930;28;20041;-62
2022/09/04 13:38:50;;;;;;;3.63;1.75;;;27.40;70.40;;;;;;5004501;28;20050;-63
2022/09/04 13:41:37;;;;;;;2.83;1.80;;;27.50;70.40;;;;;;4995252;28;20497;-62
2022/09/04 13:44:49;;;;;;;2.95;1.50;;;27.40;70.30;;;;;;4980755;28;20405;-63
2022/09/04 13:47:50;;;;;;;3.17;1.60;;;27.40;70.40;;;;;;4971108;28;20065;-63
2022/09/04 13:50:42;;;;;;;2.47;1.33;;;27.60;70.70;;;;;;4942526;28;20451;-63
2022/09/04 13:53:21;;;;;;;2.20;1.75;;;27.80;70.90;;;;;;4990708;28;20124;-63
2022/09/04 13:55:56;;;;;;;2.28;1.65;;;27.80;69.30;;;;;;4993591;28;20121;-62
2022/09/04 13:58:45;;;;;;;3.55;2.00;;;27.70;69.30;;;;;;5009845;28;20292;-62
2022/09/04 14:01:15;;;;;;;4.70;1.70;;;27.60;69.10;;;;;;5005215;28;20052;-60
2022/09/04 14:03:52;;;;;;;3.80;1.70;;;27.60;70.00;;;;;;5010478;28;20053;-63
2022/09/04 14:06:21;;;;;;;3.22;1.50;;;27.60;70.00;;;;;;5004196;28;20032;-63
2022/09/04 14:08:49;;;;;;;4.18;1.60;;;27.60;70.10;;;;;;4992447;28;20388;-61
2022/09/04 14:11:15;;;;;;;3.58;2.08;;;27.40;69.90;;;;;;5018865;28;20512;-63
2022/09/04 14:14:12;;;;;;;3.50;1.85;;;27.40;70.50;;;;;;4993436;28;20041;-63
2022/09/04 14:16:40;;;;;;;4.50;2.05;;;27.30;70.70;;;;;;4985109;28;20038;-61
2022/09/04 14:19:31;;;;;;;4.30;1.95;;;27.40;70.70;;;;;;4970935;28;20064;-63
2022/09/04 14:22:01;;;;;;;2.10;1.70;;;27.40;70.10;;;;;;5014701;28;20048;-63
2022/09/04 14:25:13;;;;;;;3.38;2.13;;;27.30;70.10;;;;;;5016818;28;20072;-61